createdAt,value
2023-05-06T00:00:07.680Z,13.45
2023-05-06T00:05:09.407Z,13.00
2023-05-06T00:10:11.204Z,13.15
2023-05-06T00:15:12.782Z,13.15
2023-05-06T00:20:14.821Z,13.14
2023-05-06T00:25:16.339Z,13.44
2023-05-06T00:30:18.011Z,13.50
2023-05-06T00:35:19.582Z,13.44
2023-05-06T00:40:21.075Z,13.33
2023-05-06T00:45:22.563Z,13.09
2023-05-06T00:50:24.178Z,13.20
2023-05-06T00:55:26.148Z,13.41
2023-05-06T01:00:27.635Z,13.36
2023-05-06T01:05:31.256Z,13.36
2023-05-06T01:10:54.308Z,13.43
2023-05-06T01:15:57.108Z,13.54
2023-05-06T01:20:59.105Z,13.52
2023-05-06T01:26:00.639Z,12.97
2023-05-06T01:31:12.275Z,13.32
2023-05-06T01:36:18.848Z,13.52
2023-05-06T01:41:20.600Z,13.49
2023-05-06T01:46:22.297Z,13.57
2023-05-06T01:51:23.791Z,13.86
2023-05-06T01:56:27.041Z,13.72
2023-05-06T02:01:28.553Z,13.53
2023-05-06T02:06:30.054Z,13.50
2023-05-06T02:11:31.517Z,13.36
2023-05-06T02:16:33.085Z,13.68
2023-05-06T02:21:34.671Z,13.64
2023-05-06T02:26:36.133Z,13.52
2023-05-06T02:31:37.721Z,13.24
2023-05-06T02:36:39.241Z,13.39
2023-05-06T02:41:40.687Z,13.21
2023-05-06T02:46:43.565Z,13.50
2023-05-06T02:51:44.890Z,13.61
2023-05-06T02:56:46.399Z,13.62
2023-05-06T03:01:47.893Z,13.59
2023-05-06T03:06:49.365Z,13.55
2023-05-06T03:11:50.844Z,13.71
2023-05-06T03:16:52.364Z,13.59
2023-05-06T03:21:53.957Z,13.14
2023-05-06T03:26:55.458Z,13.60
2023-05-06T03:31:57.146Z,13.89
2023-05-06T03:36:58.808Z,13.86
2023-05-06T03:42:00.275Z,13.73
2023-05-06T03:47:01.725Z,13.70
2023-05-06T03:52:03.188Z,13.65
2023-05-06T03:57:05.265Z,13.69
2023-05-06T04:02:06.877Z,13.57
2023-05-06T04:07:08.997Z,13.62
2023-05-06T04:12:10.654Z,13.77
2023-05-06T04:17:12.178Z,13.70
2023-05-06T04:22:13.663Z,13.32
2023-05-06T04:27:15.206Z,13.73
2023-05-06T04:32:17.992Z,13.78
2023-05-06T04:37:20.034Z,13.76
2023-05-06T04:42:21.610Z,13.72
2023-05-06T04:47:23.155Z,13.85
2023-05-06T04:52:24.714Z,13.65
2023-05-06T04:57:26.262Z,13.74
2023-05-06T05:02:27.796Z,13.76
2023-05-06T05:07:29.332Z,13.94
2023-05-06T05:12:31.192Z,14.07
2023-05-06T05:17:32.640Z,14.10
2023-05-06T05:22:34.100Z,14.16
2023-05-06T05:27:36.340Z,14.21
2023-05-06T05:32:37.861Z,14.17
2023-05-06T05:37:39.354Z,14.27
2023-05-06T05:42:40.796Z,14.29
2023-05-06T05:47:42.310Z,14.10
2023-05-06T05:52:43.780Z,14.38
2023-05-06T05:57:51.768Z,14.14
2023-05-06T06:02:53.384Z,14.14
2023-05-06T06:07:54.963Z,14.36
2023-05-06T06:12:56.515Z,14.34
2023-05-06T06:17:58.133Z,14.15
2023-05-06T06:22:59.644Z,14.08
2023-05-06T06:28:01.124Z,14.31
2023-05-06T06:33:02.638Z,14.45
2023-05-06T06:38:04.120Z,14.50
2023-05-06T06:43:05.613Z,14.53
2023-05-06T06:48:07.133Z,14.43
2023-05-06T06:53:09.815Z,14.34
2023-05-06T06:58:11.402Z,14.65
2023-05-06T07:03:15.797Z,14.36
2023-05-06T07:08:17.370Z,14.51
2023-05-06T07:13:20.676Z,14.54
2023-05-06T07:18:22.303Z,14.69
2023-05-06T07:23:23.769Z,14.62
2023-05-06T07:28:25.718Z,14.78
2023-05-06T07:33:27.178Z,14.83
2023-05-06T07:38:28.621Z,14.86
2023-05-06T07:43:30.098Z,15.09
2023-05-06T07:48:33.073Z,14.99
2023-05-06T07:53:34.835Z,15.24
2023-05-06T07:58:36.316Z,15.31
2023-05-06T08:03:38.037Z,15.43
2023-05-06T08:08:39.634Z,15.56
2023-05-06T08:13:41.140Z,15.62
2023-05-06T08:18:42.591Z,15.86
2023-05-06T08:23:44.057Z,15.45
2023-05-06T08:28:45.619Z,16.00
2023-05-06T08:33:47.084Z,15.85
2023-05-06T08:38:50.718Z,16.06
2023-05-06T08:43:52.341Z,16.20
2023-05-06T08:48:53.905Z,16.15
2023-05-06T08:53:55.935Z,15.70
2023-05-06T08:58:58.441Z,16.05
2023-05-06T09:03:59.917Z,16.09
2023-05-06T09:09:01.386Z,16.24
2023-05-06T09:14:13.397Z,16.26
2023-05-06T09:19:15.544Z,16.40
2023-05-06T09:24:17.110Z,16.30
2023-05-06T09:29:18.578Z,16.19
2023-05-06T09:34:21.119Z,16.45
2023-05-06T09:39:26.601Z,16.88
2023-05-06T09:44:28.124Z,17.08
2023-05-06T09:49:29.591Z,16.83
2023-05-06T09:54:31.072Z,16.79
2023-05-06T09:59:32.540Z,17.18
2023-05-06T10:04:34.472Z,17.49
2023-05-06T10:09:36.103Z,17.65
2023-05-06T10:14:37.801Z,17.84
2023-05-06T10:19:40.216Z,17.67
2023-05-06T10:24:47.429Z,17.77
2023-05-06T10:29:48.919Z,17.77
2023-05-06T10:34:54.782Z,17.78
2023-05-06T10:39:56.327Z,17.59
2023-05-06T10:45:03.676Z,17.54
2023-05-06T10:50:31.618Z,17.60
2023-05-06T10:55:34.534Z,17.73
2023-05-06T11:00:36.185Z,17.94
2023-05-06T11:05:48.851Z,18.02
2023-05-06T11:10:50.956Z,17.99
2023-05-06T11:15:52.501Z,18.29
2023-05-06T11:21:03.045Z,18.17
2023-05-06T11:26:06.936Z,18.27
2023-05-06T11:31:08.475Z,18.64
2023-05-06T11:36:13.869Z,18.46
2023-05-06T11:41:15.692Z,18.47
2023-05-06T11:46:21.192Z,18.72
2023-05-06T11:51:23.143Z,18.89
2023-05-06T11:56:25.009Z,18.85
2023-05-06T12:01:26.486Z,18.83
2023-05-06T12:06:37.035Z,18.22
2023-05-06T12:11:38.994Z,18.31
2023-05-06T12:16:41.269Z,18.55
2023-05-06T12:21:43.110Z,17.90
2023-05-06T12:26:46.037Z,18.06
2023-05-06T12:31:47.691Z,17.82
2023-05-06T12:36:49.197Z,17.58
2023-05-06T12:41:50.768Z,18.02
2023-05-06T12:46:55.002Z,17.75
2023-05-06T12:52:09.528Z,17.76
2023-05-06T12:57:11.105Z,17.11
2023-05-06T13:02:12.717Z,17.55
2023-05-06T13:07:14.273Z,17.55
2023-05-06T13:12:15.838Z,17.02
2023-05-06T13:17:17.621Z,17.31
2023-05-06T13:22:19.916Z,16.87
2023-05-06T13:27:21.787Z,16.84
2023-05-06T13:32:23.382Z,17.11
2023-05-06T13:37:24.840Z,17.42
2023-05-06T13:42:26.303Z,17.44
2023-05-06T13:47:27.810Z,17.67
2023-05-06T13:52:29.299Z,17.75
2023-05-06T13:57:30.787Z,17.34
2023-05-06T14:02:32.293Z,17.56
2023-05-06T14:07:33.879Z,17.55
2023-05-06T14:12:35.385Z,17.95
2023-05-06T14:17:37.121Z,18.24
2023-05-06T14:22:39.974Z,18.08
2023-05-06T14:27:41.428Z,18.01
2023-05-06T14:32:43.570Z,18.03
2023-05-06T14:37:45.216Z,17.35
2023-05-06T14:42:46.682Z,17.13
2023-05-06T14:47:48.270Z,17.28
2023-05-06T14:52:49.792Z,16.85
2023-05-06T14:57:52.021Z,17.34
2023-05-06T15:02:53.662Z,17.46
2023-05-06T15:07:55.259Z,17.13
2023-05-06T15:12:56.766Z,16.61
2023-05-06T15:17:58.339Z,16.57
2023-05-06T15:22:59.886Z,16.60
2023-05-06T15:28:01.390Z,16.72
2023-05-06T15:33:03.040Z,16.65
2023-05-06T15:38:04.611Z,16.75
2023-05-06T15:43:06.141Z,16.50
2023-05-06T15:48:07.711Z,16.48
2023-05-06T15:53:09.581Z,16.64
2023-05-06T15:58:11.060Z,16.50
2023-05-06T16:03:12.921Z,16.58
2023-05-06T16:08:14.562Z,16.69
2023-05-06T16:13:16.106Z,16.58
2023-05-06T16:18:17.631Z,16.33
2023-05-06T16:23:19.491Z,16.01
2023-05-06T16:28:20.977Z,16.08
2023-05-06T16:33:22.427Z,15.96
2023-05-06T16:38:24.667Z,16.00
2023-05-06T16:43:26.154Z,15.92
2023-05-06T16:48:27.760Z,15.98
2023-05-06T16:53:29.480Z,15.70
2023-05-06T16:58:31.033Z,15.30
2023-05-06T17:03:32.623Z,15.08
2023-05-06T17:08:36.380Z,15.43
2023-05-06T17:13:38.455Z,15.45
2023-05-06T17:18:39.940Z,15.32
2023-05-06T17:23:41.466Z,15.31
2023-05-06T17:28:42.960Z,15.45
2023-05-06T17:33:44.735Z,15.37
2023-05-06T17:38:49.030Z,15.30
2023-05-06T17:43:50.963Z,15.26
2023-05-06T17:48:53.019Z,15.46
2023-05-06T17:53:54.481Z,14.90
2023-05-06T17:58:58.055Z,15.07
2023-05-06T18:03:59.619Z,15.22
2023-05-06T18:09:01.176Z,15.39
2023-05-06T18:14:02.657Z,15.46
2023-05-06T18:19:05.142Z,15.24
2023-05-06T18:24:15.858Z,15.17
2023-05-06T18:29:18.190Z,15.11
2023-05-06T18:34:19.668Z,15.31
2023-05-06T18:39:22.830Z,15.45
2023-05-06T18:44:24.338Z,15.69
2023-05-06T18:49:27.419Z,15.70
2023-05-06T18:54:28.878Z,15.36
2023-05-06T18:59:30.576Z,15.46
2023-05-06T19:04:32.144Z,15.14
2023-05-06T19:09:36.822Z,15.02
2023-05-06T19:14:38.298Z,15.03
2023-05-06T19:19:40.621Z,15.03
2023-05-06T19:24:42.144Z,15.12
2023-05-06T19:29:43.613Z,15.37
2023-05-06T19:34:45.073Z,15.00
2023-05-06T19:39:47.514Z,15.25
2023-05-06T19:44:49.631Z,15.30
2023-05-06T19:49:53.735Z,15.37
2023-05-06T19:54:55.218Z,15.10
2023-05-06T19:59:56.771Z,14.73
2023-05-06T20:04:58.283Z,14.98
2023-05-06T20:09:59.829Z,14.67
2023-05-06T20:15:03.527Z,15.03
2023-05-06T20:20:09.630Z,15.13
2023-05-06T20:25:13.016Z,14.99
2023-05-06T20:30:14.842Z,14.83
2023-05-06T20:35:16.847Z,15.09
2023-05-06T20:40:18.354Z,14.87
2023-05-06T20:45:19.925Z,15.24
2023-05-06T20:50:21.386Z,15.07
2023-05-06T20:55:23.650Z,15.17
2023-05-06T21:00:25.211Z,14.88
2023-05-06T21:05:26.755Z,15.45
2023-05-06T21:10:28.255Z,15.22
2023-05-06T21:15:29.784Z,14.95
2023-05-06T21:20:31.953Z,14.53
2023-05-06T21:25:33.446Z,14.76
2023-05-06T21:30:35.025Z,14.41
2023-05-06T21:35:36.766Z,14.58
2023-05-06T21:40:38.397Z,14.48
2023-05-06T21:45:39.944Z,14.60
2023-05-06T21:50:41.438Z,14.23
2023-05-06T21:55:42.907Z,14.21
2023-05-06T22:00:44.410Z,14.28
2023-05-06T22:05:45.886Z,14.33
2023-05-06T22:10:47.366Z,14.44
2023-05-06T22:15:48.835Z,14.07
2023-05-06T22:20:52.408Z,14.35
2023-05-06T22:25:53.926Z,14.10
2023-05-06T22:30:55.432Z,14.15
2023-05-06T22:35:56.958Z,14.11
2023-05-06T22:40:58.418Z,13.77
2023-05-06T22:46:00.035Z,13.95
2023-05-06T22:51:02.826Z,14.23
2023-05-06T22:56:04.193Z,13.98
2023-05-06T23:01:07.240Z,14.09
2023-05-06T23:06:09.928Z,14.01
2023-05-06T23:11:11.387Z,14.30
2023-05-06T23:16:14.479Z,14.12
2023-05-06T23:21:16.159Z,14.39
2023-05-06T23:26:17.625Z,14.12
2023-05-06T23:31:19.212Z,14.16
2023-05-06T23:36:21.171Z,13.91
2023-05-06T23:41:23.494Z,14.17
2023-05-06T23:46:24.997Z,14.06
2023-05-06T23:51:26.542Z,14.16
2023-05-06T23:56:28.458Z,14.04
